createdAt,value
2018-04-24T00:02:16.621Z,96.48
2018-04-24T00:04:45.021Z,96.46
2018-04-24T00:07:13.422Z,96.15
2018-04-24T00:09:41.829Z,95.95
2018-04-24T00:12:10.305Z,96.17
2018-04-24T00:14:38.666Z,96.14
2018-04-24T00:17:07.036Z,96.22
2018-04-24T00:19:35.360Z,96.06
2018-04-24T00:22:03.737Z,96.21
2018-04-24T00:24:32.064Z,96.26
2018-04-24T00:27:00.410Z,96.40
2018-04-24T00:29:28.780Z,96.23
2018-04-24T00:31:57.117Z,96.47
2018-04-24T00:34:25.464Z,96.34
2018-04-24T00:36:53.872Z,96.25
2018-04-24T00:39:22.191Z,96.19
2018-04-24T00:41:50.545Z,96.05
2018-04-24T00:44:19.178Z,95.93
2018-04-24T00:46:47.889Z,96.15
2018-04-24T00:49:17.515Z,96.24
2018-04-24T00:51:46.339Z,96.00
2018-04-24T00:54:14.765Z,96.38
2018-04-24T00:56:43.153Z,96.32
2018-04-24T00:59:11.490Z,95.99
2018-04-24T01:01:39.862Z,96.16
2018-04-24T01:04:08.207Z,96.11
2018-04-24T01:06:36.535Z,96.13
2018-04-24T01:09:04.892Z,96.13
2018-04-24T01:11:33.231Z,96.16
2018-04-24T01:14:01.573Z,96.43
2018-04-24T01:16:29.904Z,96.56
2018-04-24T01:18:58.360Z,96.26
2018-04-24T01:21:26.693Z,96.21
2018-04-24T01:23:55.040Z,96.45
2018-04-24T01:26:23.377Z,96.48
2018-04-24T01:28:51.785Z,96.05
2018-04-24T01:31:20.119Z,96.12
2018-04-24T01:33:48.493Z,95.92
2018-04-24T01:36:16.834Z,95.89
2018-04-24T01:38:45.243Z,95.84
2018-04-24T01:41:13.643Z,96.11
2018-04-24T01:43:42.015Z,96.04
2018-04-24T01:46:10.352Z,96.24
2018-04-24T01:48:38.680Z,96.02
2018-04-24T01:51:07.037Z,96.00
2018-04-24T01:53:35.372Z,96.43
2018-04-24T01:56:03.719Z,96.26
2018-04-24T01:58:32.069Z,96.26
2018-04-24T02:01:00.461Z,96.15
2018-04-24T02:03:28.794Z,96.08
2018-04-24T02:05:57.210Z,96.37
2018-04-24T02:08:25.636Z,96.37
2018-04-24T02:10:54.080Z,96.37
2018-04-24T02:13:22.417Z,96.27
2018-04-24T02:15:51.059Z,95.97
2018-04-24T02:18:19.524Z,95.94
2018-04-24T02:20:47.886Z,96.06
2018-04-24T02:23:16.218Z,96.16
2018-04-24T02:25:44.582Z,96.17
2018-04-24T02:28:12.964Z,95.97
2018-04-24T02:30:41.333Z,96.06
2018-04-24T02:33:09.788Z,96.02
2018-04-24T02:35:38.102Z,96.02
2018-04-24T02:38:07.541Z,95.82
2018-04-24T02:40:35.905Z,95.97
2018-04-24T02:43:04.281Z,96.11
2018-04-24T02:45:32.605Z,96.16
2018-04-24T02:48:00.945Z,96.05
2018-04-24T02:50:29.344Z,96.04
2018-04-24T02:52:57.709Z,96.05
2018-04-24T02:55:26.042Z,96.05
2018-04-24T02:57:54.375Z,96.10
2018-04-24T03:00:22.730Z,96.16
2018-04-24T03:02:51.065Z,96.20
2018-04-24T03:05:19.404Z,96.09
2018-04-24T03:07:47.737Z,96.05
2018-04-24T03:10:16.080Z,96.03
2018-04-24T03:12:44.407Z,96.07
2018-04-24T03:15:12.754Z,96.23
2018-04-24T03:17:41.097Z,96.10
2018-04-24T03:20:09.437Z,96.14
2018-04-24T03:22:37.773Z,96.01
2018-04-24T03:25:06.101Z,96.16
2018-04-24T03:27:34.463Z,96.05
2018-04-24T03:30:02.779Z,96.01
2018-04-24T03:32:31.119Z,96.07
2018-04-24T03:34:59.440Z,95.92
2018-04-24T03:37:27.784Z,96.00
2018-04-24T03:39:56.124Z,96.08
2018-04-24T03:42:24.459Z,96.27
2018-04-24T03:44:52.768Z,96.22
2018-04-24T03:47:21.127Z,96.14
2018-04-24T03:49:49.450Z,96.08
2018-04-24T03:52:17.776Z,96.20
2018-04-24T03:54:46.108Z,96.24
2018-04-24T03:57:14.467Z,96.46
2018-04-24T03:59:42.793Z,96.57
2018-04-24T04:02:11.133Z,96.57
2018-04-24T04:04:39.467Z,96.51
2018-04-24T04:07:07.789Z,96.44
2018-04-24T04:09:36.181Z,96.36
2018-04-24T04:12:04.529Z,96.25
2018-04-24T04:14:33.435Z,96.55
2018-04-24T04:17:13.539Z,96.62
2018-04-24T04:19:53.721Z,96.76
2018-04-24T04:22:34.067Z,96.74
2018-04-24T04:25:02.546Z,96.73
2018-04-24T04:27:30.874Z,96.85
2018-04-24T04:30:00.057Z,96.71
2018-04-24T04:32:28.392Z,96.55
2018-04-24T04:34:56.747Z,96.52
2018-04-24T04:37:25.069Z,96.41
2018-04-24T04:39:53.439Z,95.80
2018-04-24T04:42:21.770Z,95.83
2018-04-24T04:44:50.127Z,95.67
2018-04-24T04:47:18.452Z,95.00
2018-04-24T04:49:46.804Z,94.48
2018-04-24T04:52:15.161Z,94.46
2018-04-24T04:54:43.535Z,94.29
2018-04-24T04:57:11.873Z,94.13
2018-04-24T04:59:40.351Z,94.25
2018-04-24T05:02:08.701Z,93.87
2018-04-24T05:04:37.039Z,93.76
2018-04-24T05:07:05.379Z,93.53
2018-04-24T05:09:33.717Z,93.19
2018-04-24T05:12:02.098Z,93.16
2018-04-24T05:14:30.410Z,92.88
2018-04-24T05:16:58.790Z,92.71
2018-04-24T05:19:27.146Z,92.29
2018-04-24T05:21:58.021Z,91.69
2018-04-24T05:24:26.349Z,91.67
2018-04-24T05:26:54.679Z,91.51
2018-04-24T05:29:23.013Z,91.49
2018-04-24T05:31:51.368Z,90.80
2018-04-24T05:34:19.703Z,90.54
2018-04-24T05:36:48.061Z,90.43
2018-04-24T05:39:16.401Z,90.38
2018-04-24T05:41:44.729Z,86.26
2018-04-24T05:44:13.074Z,84.71
2018-04-24T05:46:41.482Z,81.36
2018-04-24T05:49:09.835Z,80.84
2018-04-24T05:51:38.163Z,79.95
2018-04-24T05:54:06.521Z,80.24
2018-04-24T05:56:34.870Z,80.14
2018-04-24T05:59:03.235Z,81.30
2018-04-24T06:01:31.575Z,80.18
2018-04-24T06:03:59.965Z,79.42
2018-04-24T06:06:28.534Z,76.33
2018-04-24T06:08:56.964Z,75.36
2018-04-24T06:11:26.265Z,72.95
2018-04-24T06:13:54.624Z,71.82
2018-04-24T06:16:22.959Z,70.10
2018-04-24T06:18:51.317Z,71.31
2018-04-24T06:21:19.651Z,67.49
2018-04-24T06:23:48.000Z,65.71
2018-04-24T06:26:16.358Z,63.44
2018-04-24T06:28:44.708Z,64.85
2018-04-24T06:31:13.044Z,63.98
2018-04-24T06:33:41.384Z,63.27
2018-04-24T06:36:09.743Z,62.69
2018-04-24T06:38:38.065Z,64.43
2018-04-24T06:41:06.525Z,66.72
2018-04-24T06:43:34.875Z,69.15
2018-04-24T06:46:03.209Z,70.67
2018-04-24T06:48:31.554Z,71.55
2018-04-24T06:50:59.898Z,71.62
2018-04-24T06:53:28.242Z,71.01
2018-04-24T06:55:56.662Z,72.34
2018-04-24T06:58:24.994Z,72.40
2018-04-24T07:00:53.371Z,69.04
2018-04-24T07:03:21.696Z,68.22
2018-04-24T07:05:50.020Z,66.17
2018-04-24T07:08:18.359Z,63.93
2018-04-24T07:10:46.742Z,62.01
2018-04-24T07:13:15.099Z,57.45
2018-04-24T07:15:43.575Z,59.52
2018-04-24T07:18:11.901Z,57.52
2018-04-24T07:20:40.241Z,57.59
2018-04-24T07:23:08.630Z,52.99
2018-04-24T07:25:36.961Z,52.70
2018-04-24T07:28:05.306Z,53.82
2018-04-24T07:30:33.729Z,54.98
2018-04-24T07:33:02.152Z,55.33
2018-04-24T07:35:31.437Z,51.24
2018-04-24T07:37:59.780Z,51.18
2018-04-24T07:40:28.127Z,48.60
2018-04-24T07:42:56.465Z,46.83
2018-04-24T07:45:24.811Z,44.19
2018-04-24T07:47:53.216Z,44.03
2018-04-24T07:50:21.556Z,45.54
2018-04-24T07:52:49.895Z,46.31
2018-04-24T07:55:18.252Z,46.71
2018-04-24T07:57:46.595Z,49.63
2018-04-24T08:00:14.996Z,46.71
2018-04-24T08:02:43.307Z,46.44
2018-04-24T08:05:11.657Z,47.51
2018-04-24T08:07:39.999Z,47.23
2018-04-24T08:10:08.331Z,47.37
2018-04-24T08:12:36.669Z,48.84
2018-04-24T08:15:05.017Z,45.08
2018-04-24T08:17:33.351Z,50.85
2018-04-24T08:20:01.692Z,48.48
2018-04-24T08:22:39.582Z,44.22
2018-04-24T08:25:08.095Z,43.09
2018-04-24T08:27:36.433Z,42.55
2018-04-24T08:30:04.786Z,43.89
2018-04-24T08:32:33.110Z,43.82
2018-04-24T08:35:01.468Z,44.46
2018-04-24T08:37:29.810Z,43.96
2018-04-24T08:39:58.376Z,46.56
2018-04-24T08:42:26.707Z,47.71
2018-04-24T08:44:55.037Z,48.64
2018-04-24T08:47:23.404Z,48.84
2018-04-24T08:49:51.843Z,47.20
2018-04-24T08:52:20.183Z,48.35
2018-04-24T08:54:48.536Z,45.79
2018-04-24T08:57:16.875Z,46.16
2018-04-24T08:59:45.217Z,45.18
2018-04-24T09:02:13.571Z,46.05
2018-04-24T09:04:46.326Z,44.63
2018-04-24T09:07:14.661Z,45.20
2018-04-24T09:09:43.003Z,44.83
2018-04-24T09:12:11.353Z,46.44
2018-04-24T09:14:39.707Z,45.00
2018-04-24T09:17:08.041Z,43.36
2018-04-24T09:19:36.377Z,42.82
2018-04-24T09:22:04.712Z,44.44
2018-04-24T09:24:33.037Z,45.67
2018-04-24T09:27:02.270Z,45.44
2018-04-24T09:29:30.558Z,46.10
2018-04-24T09:31:58.910Z,43.18
2018-04-24T09:34:27.240Z,43.34
2018-04-24T09:36:55.622Z,43.34
2018-04-24T09:39:24.012Z,44.51
2018-04-24T09:41:52.340Z,44.08
2018-04-24T09:44:20.697Z,42.92
2018-04-24T09:46:49.034Z,42.88
2018-04-24T09:49:17.368Z,43.34
2018-04-24T09:51:45.773Z,42.70
2018-04-24T09:54:14.182Z,42.46
2018-04-24T09:56:42.779Z,41.68
2018-04-24T09:59:11.112Z,42.54
2018-04-24T10:01:39.436Z,42.69
2018-04-24T10:04:07.781Z,41.71
2018-04-24T10:06:36.130Z,42.19
2018-04-24T10:09:04.460Z,42.44
2018-04-24T10:11:32.796Z,41.32
2018-04-24T10:14:01.138Z,41.83
2018-04-24T10:16:29.452Z,40.61
2018-04-24T10:18:57.785Z,38.49
2018-04-24T10:21:26.107Z,38.69
2018-04-24T10:23:55.131Z,40.91
2018-04-24T10:26:23.464Z,41.61
2018-04-24T10:28:51.793Z,41.54
2018-04-24T10:31:20.124Z,39.81
2018-04-24T10:33:48.458Z,41.75
2018-04-24T10:36:16.799Z,42.72
2018-04-24T10:38:45.147Z,42.62
2018-04-24T10:41:13.829Z,41.66
2018-04-24T10:43:42.250Z,41.32
2018-04-24T10:46:10.541Z,42.46
2018-04-24T10:48:38.895Z,41.91
2018-04-24T10:51:11.795Z,42.64
2018-04-24T10:53:42.441Z,42.38
2018-04-24T10:56:10.763Z,41.06
2018-04-24T10:58:39.073Z,41.55
2018-04-24T11:01:08.643Z,41.58
2018-04-24T11:03:37.144Z,40.24
2018-04-24T11:06:05.497Z,39.14
2018-04-24T11:08:33.826Z,37.44
2018-04-24T11:11:04.132Z,38.98
2018-04-24T11:13:33.489Z,38.30
2018-04-24T11:16:01.839Z,38.16
2018-04-24T11:18:30.158Z,37.94
2018-04-24T11:20:59.090Z,38.61
2018-04-24T11:23:27.426Z,39.21
2018-04-24T11:25:55.811Z,39.43
2018-04-24T11:28:24.116Z,37.92
2018-04-24T11:30:55.106Z,38.80
2018-04-24T11:33:23.486Z,38.57
2018-04-24T11:35:51.874Z,37.19
2018-04-24T11:38:20.178Z,37.62
2018-04-24T11:40:49.668Z,38.23
2018-04-24T11:43:18.535Z,38.06
2018-04-24T11:45:46.861Z,37.92
2018-04-24T11:48:15.172Z,38.83
2018-04-24T11:50:45.707Z,38.43
2018-04-24T11:53:14.080Z,38.96
2018-04-24T11:55:42.419Z,39.78
2018-04-24T11:58:10.732Z,38.69
2018-04-24T12:00:39.662Z,39.13
2018-04-24T12:03:08.200Z,39.75
2018-04-24T12:05:36.523Z,39.70
2018-04-24T12:08:04.858Z,38.69
2018-04-24T12:10:33.168Z,39.18
2018-04-24T12:13:01.501Z,39.14
2018-04-24T12:15:29.824Z,40.07
2018-04-24T12:17:58.146Z,39.08
2018-04-24T12:20:26.596Z,40.03
2018-04-24T12:22:54.897Z,39.65
2018-04-24T12:25:23.340Z,40.75
2018-04-24T12:27:51.653Z,41.31
2018-04-24T12:30:20.808Z,41.67
2018-04-24T12:32:49.141Z,40.31
2018-04-24T12:35:17.463Z,41.09
2018-04-24T12:37:45.794Z,40.07
2018-04-24T12:40:15.217Z,40.45
2018-04-24T12:42:43.547Z,40.26
2018-04-24T12:45:11.951Z,40.13
2018-04-24T12:47:40.255Z,41.99
2018-04-24T12:50:08.658Z,41.89
2018-04-24T12:52:36.995Z,40.19
2018-04-24T12:55:05.317Z,40.04
2018-04-24T12:57:33.631Z,41.99
2018-04-24T13:00:01.957Z,42.27
2018-04-24T13:02:30.278Z,42.49
2018-04-24T13:04:58.619Z,41.91
2018-04-24T13:07:26.926Z,43.70
2018-04-24T13:09:55.269Z,41.63
2018-04-24T13:12:23.605Z,42.70
2018-04-24T13:14:51.993Z,40.93
2018-04-24T13:17:20.377Z,42.28
2018-04-24T13:19:48.821Z,42.23
2018-04-24T13:22:17.167Z,43.35
2018-04-24T13:24:45.487Z,42.79
2018-04-24T13:27:13.848Z,42.93
2018-04-24T13:29:42.237Z,44.54
2018-04-24T13:32:10.641Z,44.76
2018-04-24T13:34:38.946Z,46.85
2018-04-24T13:37:07.288Z,47.07
2018-04-24T13:39:35.594Z,47.25
2018-04-24T13:42:03.976Z,46.08
2018-04-24T13:44:32.249Z,45.48
2018-04-24T13:47:01.467Z,44.56
2018-04-24T13:49:29.784Z,45.31
2018-04-24T13:51:58.174Z,45.61
2018-04-24T13:54:26.582Z,45.37
2018-04-24T13:56:54.941Z,45.20
2018-04-24T13:59:23.249Z,45.86
2018-04-24T14:01:51.584Z,45.22
2018-04-24T14:04:19.890Z,46.59
2018-04-24T14:06:48.212Z,47.04
2018-04-24T14:09:16.530Z,46.81
2018-04-24T14:11:44.851Z,45.55
2018-04-24T14:14:13.169Z,47.49
2018-04-24T14:16:41.475Z,45.03
2018-04-24T14:19:09.791Z,43.95
2018-04-24T14:21:38.138Z,47.81
2018-04-24T14:24:06.432Z,46.68
2018-04-24T14:26:34.757Z,45.96
2018-04-24T14:29:03.077Z,46.89
2018-04-24T14:31:31.400Z,46.56
2018-04-24T14:33:59.726Z,45.00
2018-04-24T14:36:28.097Z,42.39
2018-04-24T14:38:56.408Z,44.26
2018-04-24T14:41:24.724Z,46.73
2018-04-24T14:43:53.055Z,45.68
2018-04-24T14:46:21.379Z,45.46
2018-04-24T14:48:49.736Z,45.89
2018-04-24T14:51:18.057Z,45.33
2018-04-24T14:53:46.392Z,45.13
2018-04-24T14:56:14.723Z,44.85
2018-04-24T14:58:43.061Z,46.38
2018-04-24T15:01:11.442Z,47.92
2018-04-24T15:03:41.134Z,48.11
2018-04-24T15:06:09.494Z,47.36
2018-04-24T15:08:37.799Z,47.81
2018-04-24T15:11:06.205Z,49.37
2018-04-24T15:13:35.192Z,48.98
2018-04-24T15:16:03.528Z,48.68
2018-04-24T15:18:31.842Z,48.87
2018-04-24T15:21:00.158Z,48.21
2018-04-24T15:23:28.490Z,48.30
2018-04-24T15:25:56.810Z,50.39
2018-04-24T15:28:25.152Z,49.69
2018-04-24T15:30:53.510Z,50.16
2018-04-24T15:33:21.935Z,51.19
2018-04-24T15:35:50.279Z,50.32
2018-04-24T15:38:18.607Z,50.00
2018-04-24T15:40:46.951Z,52.29
2018-04-24T15:43:15.273Z,52.95
2018-04-24T15:45:43.583Z,55.12
2018-04-24T15:48:11.940Z,55.73
2018-04-24T15:50:40.282Z,56.60
2018-04-24T15:53:08.611Z,56.29
2018-04-24T15:55:36.929Z,57.71
2018-04-24T15:58:05.243Z,58.05
2018-04-24T16:00:33.550Z,56.49
2018-04-24T16:03:01.885Z,57.23
2018-04-24T16:05:30.213Z,55.97
2018-04-24T16:07:58.546Z,56.29
2018-04-24T16:10:26.854Z,56.22
2018-04-24T16:12:55.252Z,57.81
2018-04-24T16:15:23.648Z,58.72
2018-04-24T16:17:51.966Z,57.20
2018-04-24T16:20:20.279Z,57.26
2018-04-24T16:22:49.456Z,57.29
2018-04-24T16:25:17.776Z,57.11
2018-04-24T16:27:46.109Z,56.75
2018-04-24T16:30:14.428Z,57.07
2018-04-24T16:32:42.749Z,56.83
2018-04-24T16:35:11.075Z,58.34
2018-04-24T16:37:39.524Z,57.80
2018-04-24T16:40:07.851Z,57.48
2018-04-24T16:42:36.183Z,57.65
2018-04-24T16:45:04.550Z,58.13
2018-04-24T16:47:32.859Z,59.10
2018-04-24T16:50:01.193Z,58.25
2018-04-24T16:52:29.503Z,58.08
2018-04-24T16:54:57.826Z,58.14
2018-04-24T16:57:26.149Z,57.32
2018-04-24T16:59:54.482Z,58.82
2018-04-24T17:02:25.836Z,58.27
2018-04-24T17:04:54.175Z,58.13
2018-04-24T17:07:22.480Z,60.01
2018-04-24T17:09:50.803Z,58.65
2018-04-24T17:12:19.719Z,58.08
2018-04-24T17:14:48.065Z,58.34
2018-04-24T17:17:16.422Z,58.88
2018-04-24T17:19:44.732Z,59.18
2018-04-24T17:22:13.103Z,60.48
2018-04-24T17:24:43.095Z,60.54
2018-04-24T17:27:11.420Z,61.96
2018-04-24T17:29:39.747Z,62.55
2018-04-24T17:32:08.067Z,61.51
2018-04-24T17:34:36.393Z,63.06
2018-04-24T17:37:04.721Z,64.44
2018-04-24T17:39:33.102Z,64.03
2018-04-24T17:42:01.404Z,64.20
2018-04-24T17:44:29.739Z,65.40
2018-04-24T17:46:58.108Z,65.21
2018-04-24T17:49:26.419Z,64.87
2018-04-24T17:51:54.767Z,64.91
2018-04-24T17:54:23.082Z,65.05
2018-04-24T17:56:51.436Z,67.49
2018-04-24T17:59:19.805Z,64.97
2018-04-24T18:01:48.117Z,66.42
2018-04-24T18:04:16.441Z,65.76
2018-04-24T18:06:44.747Z,66.90
2018-04-24T18:09:13.106Z,66.03
2018-04-24T18:11:41.440Z,65.92
2018-04-24T18:14:09.781Z,66.17
2018-04-24T18:16:38.075Z,64.62
2018-04-24T18:19:06.417Z,65.95
2018-04-24T18:21:34.797Z,67.49
2018-04-24T18:24:03.076Z,65.64
2018-04-24T18:26:31.384Z,66.32
2018-04-24T18:28:59.719Z,66.52
2018-04-24T18:31:28.027Z,67.15
2018-04-24T18:33:56.363Z,66.98
2018-04-24T18:36:24.672Z,66.82
2018-04-24T18:38:53.019Z,68.16
2018-04-24T18:41:21.331Z,67.73
2018-04-24T18:43:49.657Z,69.62
2018-04-24T18:46:17.978Z,69.79
2018-04-24T18:48:46.336Z,70.46
2018-04-24T18:51:14.646Z,71.58
2018-04-24T18:53:42.972Z,72.17
2018-04-24T18:56:11.283Z,72.70
2018-04-24T18:58:39.618Z,72.97
2018-04-24T19:01:07.923Z,72.44
2018-04-24T19:03:36.256Z,72.63
2018-04-24T19:06:04.576Z,73.36
2018-04-24T19:08:32.889Z,74.44
2018-04-24T19:11:05.176Z,73.46
2018-04-24T19:13:33.478Z,72.70
2018-04-24T19:16:01.823Z,75.68
2018-04-24T19:18:35.712Z,74.05
2018-04-24T19:21:04.049Z,74.58
2018-04-24T19:23:32.361Z,75.21
2018-04-24T19:26:00.695Z,75.06
2018-04-24T19:28:29.041Z,74.55
2018-04-24T19:30:57.347Z,74.67
2018-04-24T19:33:25.668Z,76.37
2018-04-24T19:35:54.003Z,76.25
2018-04-24T19:38:22.320Z,76.39
2018-04-24T19:40:56.302Z,76.34
2018-04-24T19:43:24.762Z,76.56
2018-04-24T19:45:53.898Z,78.18
2018-04-24T19:48:28.006Z,77.75
2018-04-24T19:50:56.340Z,77.63
2018-04-24T19:53:24.645Z,78.62
2018-04-24T19:55:52.988Z,78.66
2018-04-24T19:58:21.300Z,78.58
2018-04-24T20:00:49.621Z,78.93
2018-04-24T20:03:17.938Z,79.81
2018-04-24T20:05:46.260Z,78.53
2018-04-24T20:08:14.584Z,78.29
2018-04-24T20:10:42.916Z,79.65
2018-04-24T20:13:11.286Z,79.99
2018-04-24T20:15:39.609Z,79.89
2018-04-24T20:18:07.908Z,80.94
2018-04-24T20:20:36.309Z,80.91
2018-04-24T20:23:04.671Z,81.58
2018-04-24T20:25:32.963Z,80.87
2018-04-24T20:28:01.324Z,80.70
2018-04-24T20:30:29.642Z,80.31
2018-04-24T20:32:57.956Z,80.40
2018-04-24T20:35:26.306Z,80.77
2018-04-24T20:37:55.590Z,81.96
2018-04-24T20:40:23.947Z,81.84
2018-04-24T20:42:52.285Z,81.94
2018-04-24T20:45:20.587Z,82.36
2018-04-24T20:47:48.912Z,82.90
2018-04-24T20:50:17.227Z,82.07
2018-04-24T20:52:45.551Z,82.07
2018-04-24T20:55:13.977Z,82.31
2018-04-24T20:57:42.377Z,81.90
2018-04-24T21:00:10.685Z,82.34
2018-04-24T21:02:39.015Z,82.50
2018-04-24T21:05:07.329Z,82.46
2018-04-24T21:07:35.640Z,82.50
2018-04-24T21:10:03.959Z,82.72
2018-04-24T21:12:32.289Z,82.81
2018-04-24T21:15:00.620Z,83.04
2018-04-24T21:17:28.927Z,82.79
2018-04-24T21:19:57.252Z,82.49
2018-04-24T21:22:25.596Z,82.53
2018-04-24T21:24:53.931Z,82.59
2018-04-24T21:27:22.245Z,81.58
2018-04-24T21:29:50.563Z,81.78
2018-04-24T21:32:18.875Z,82.17
2018-04-24T21:34:47.184Z,82.15
2018-04-24T21:37:16.109Z,82.21
2018-04-24T21:39:44.432Z,81.91
2018-04-24T21:42:12.759Z,82.58
2018-04-24T21:44:41.087Z,82.13
2018-04-24T21:47:09.397Z,82.51
2018-04-24T21:49:37.745Z,83.00
2018-04-24T21:52:06.060Z,83.33
2018-04-24T21:54:34.467Z,83.19
2018-04-24T21:57:02.780Z,82.97
2018-04-24T21:59:31.105Z,82.91
2018-04-24T22:01:59.462Z,82.55
2018-04-24T22:04:27.782Z,81.88
2018-04-24T22:06:56.187Z,81.69
2018-04-24T22:09:24.501Z,81.47
2018-04-24T22:11:52.809Z,80.52
2018-04-24T22:14:21.162Z,81.47
2018-04-24T22:16:49.489Z,81.64
2018-04-24T22:19:17.813Z,81.64
2018-04-24T22:21:46.132Z,81.75
2018-04-24T22:24:14.450Z,81.56
2018-04-24T22:26:42.815Z,81.70
2018-04-24T22:29:11.174Z,81.11
2018-04-24T22:31:39.509Z,81.40
2018-04-24T22:34:07.833Z,81.45
2018-04-24T22:36:36.145Z,81.75
2018-04-24T22:39:04.489Z,81.80
2018-04-24T22:41:32.810Z,81.95
2018-04-24T22:44:01.165Z,81.91
2018-04-24T22:46:29.551Z,81.95
2018-04-24T22:48:57.877Z,82.13
2018-04-24T22:51:26.196Z,82.55
2018-04-24T22:53:54.525Z,83.63
2018-04-24T22:56:22.850Z,83.25
2018-04-24T22:58:51.163Z,83.44
2018-04-24T23:01:19.527Z,83.09
2018-04-24T23:03:47.866Z,81.72
2018-04-24T23:06:16.232Z,81.73
2018-04-24T23:08:44.584Z,82.17
2018-04-24T23:11:24.697Z,83.25
2018-04-24T23:14:04.863Z,82.75
2018-04-24T23:16:45.208Z,82.58
2018-04-24T23:19:28.720Z,82.81
2018-04-24T23:21:56.612Z,82.96
2018-04-24T23:24:24.946Z,82.17
2018-04-24T23:26:53.293Z,81.80
2018-04-24T23:29:21.620Z,82.94
2018-04-24T23:31:49.972Z,83.13
2018-04-24T23:34:18.294Z,83.50
2018-04-24T23:36:46.650Z,83.35
2018-04-24T23:39:14.981Z,81.82
2018-04-24T23:41:43.339Z,82.91
2018-04-24T23:44:11.645Z,82.88
2018-04-24T23:46:40.025Z,83.40
2018-04-24T23:49:08.340Z,83.54
2018-04-24T23:51:36.648Z,83.40
2018-04-24T23:54:04.983Z,83.33
2018-04-24T23:56:34.927Z,83.74
2018-04-24T23:59:03.297Z,84.10
